Time;durP1;ratioP1;P1;durP2;ratioP2;P2;SDS_P1;SDS_P2;PMS_P1;PMS_P2;Temp;Humidity;BMP_temperature;BMP_pressure;BME280_temperature;BME280_humidity;BME280_pressure;Samples;Min_cycle;Max_cycle;Signal;HPM_P1;HPM_P2
2020/12/06 00:02:48;;;;;;;34.95;19.52;;;1.90;99.90;;;;;;12495052;28;20064;-33
2020/12/06 00:08:50;;;;;;;32.33;18.92;;;1.80;99.90;;;;;;12524307;28;20068;-33
2020/12/06 00:14:52;;;;;;;29.65;17.50;;;1.80;99.90;;;;;;12512069;28;20088;-33
2020/12/06 00:20:53;;;;;;;34.75;19.13;;;1.80;99.90;;;;;;12511684;28;20108;-33
2020/12/06 00:26:59;;;;;;;32.67;18.35;;;1.70;99.90;;;;;;12511404;28;20049;-33
2020/12/06 00:33:00;;;;;;;27.35;16.40;;;1.70;99.90;;;;;;12510873;28;20076;-33
2020/12/06 00:39:01;;;;;;;32.63;18.55;;;1.70;99.90;;;;;;12500542;28;20144;-33
2020/12/06 00:45:05;;;;;;;33.05;18.20;;;1.70;99.90;;;;;;12512927;28;20056;-33
2020/12/06 00:51:10;;;;;;;31.73;17.52;;;1.80;99.90;;;;;;12508689;28;20167;-34
2020/12/06 00:57:11;;;;;;;27.08;16.08;;;1.70;99.90;;;;;;12510056;28;20064;-33
2020/12/06 01:03:13;;;;;;;27.90;15.43;;;1.70;99.90;;;;;;12504959;28;20076;-33
2020/12/06 01:09:14;;;;;;;27.77;15.57;;;1.70;99.90;;;;;;12522357;28;20098;-33
2020/12/06 01:15:15;;;;;;;29.48;16.05;;;1.60;99.90;;;;;;12513800;28;20053;-34
2020/12/06 01:21:17;;;;;;;29.45;18.20;;;1.70;99.90;;;;;;12509670;28;20737;-33
2020/12/06 01:27:18;;;;;;;26.70;15.30;;;1.80;99.90;;;;;;12497155;28;20132;-33
2020/12/06 01:33:19;;;;;;;25.58;16.00;;;1.90;99.90;;;;;;12507092;28;20041;-33
2020/12/06 01:39:21;;;;;;;26.73;15.75;;;2.00;99.90;;;;;;12505918;28;20170;-33
2020/12/06 01:45:23;;;;;;;28.08;16.38;;;2.10;99.90;;;;;;12506251;28;20068;-33
2020/12/06 01:51:24;;;;;;;23.13;14.55;;;2.20;99.90;;;;;;12512287;28;20496;-33
2020/12/06 01:57:25;;;;;;;27.83;15.55;;;2.30;99.90;;;;;;12514149;28;20044;-33
2020/12/06 02:03:27;;;;;;;25.35;14.82;;;2.50;99.90;;;;;;12526886;28;20081;-33
2020/12/06 02:09:30;;;;;;;26.38;14.75;;;2.60;99.90;;;;;;12519549;28;20091;-33
2020/12/06 02:15:34;;;;;;;25.73;13.77;;;2.60;99.90;;;;;;12524401;28;20083;-33
2020/12/06 02:21:40;;;;;;;23.30;14.15;;;2.60;99.90;;;;;;12510368;28;20806;-33
2020/12/06 02:27:41;;;;;;;21.80;14.38;;;2.60;99.90;;;;;;12514895;28;20071;-33
2020/12/06 02:33:42;;;;;;;23.20;14.10;;;2.60;99.90;;;;;;12516953;28;20049;-33
2020/12/06 02:39:44;;;;;;;25.95;14.05;;;2.60;99.90;;;;;;12520484;28;20098;-33
2020/12/06 02:45:45;;;;;;;25.13;15.18;;;2.60;99.90;;;;;;12522896;28;20140;-33
2020/12/06 02:51:47;;;;;;;29.10;16.20;;;2.70;99.90;;;;;;12515737;28;20181;-33
2020/12/06 02:57:48;;;;;;;27.23;15.90;;;2.60;99.90;;;;;;12517129;28;20088;-33
2020/12/06 03:03:49;;;;;;;21.70;12.98;;;2.60;99.90;;;;;;12523430;28;20588;-33
2020/12/06 03:09:51;;;;;;;22.85;14.43;;;2.70;99.90;;;;;;12529027;28;20091;-33
2020/12/06 03:15:52;;;;;;;24.75;14.10;;;3.00;99.90;;;;;;12528974;28;20151;-34
2020/12/06 03:21:53;;;;;;;23.63;13.88;;;2.90;99.90;;;;;;12493851;28;20490;-33
2020/12/06 03:27:54;;;;;;;25.13;15.00;;;3.10;99.90;;;;;;12519585;28;20056;-33
2020/12/06 03:33:56;;;;;;;25.90;16.38;;;2.90;99.90;;;;;;12520014;28;20052;-33
2020/12/06 03:39:57;;;;;;;23.73;14.52;;;2.80;99.90;;;;;;12520374;28;20091;-33
2020/12/06 03:45:58;;;;;;;24.23;15.25;;;2.80;99.90;;;;;;12532171;28;20115;-33
2020/12/06 03:52:00;;;;;;;25.92;15.43;;;2.80;99.90;;;;;;12510375;28;20048;-33
2020/12/06 03:58:02;;;;;;;25.77;14.98;;;2.80;99.90;;;;;;12512603;28;20142;-33
2020/12/06 04:04:03;;;;;;;27.08;16.88;;;2.80;99.90;;;;;;12523743;28;20049;-34
2020/12/06 04:10:05;;;;;;;26.58;16.63;;;2.70;99.90;;;;;;12514936;28;20049;-34
2020/12/06 04:16:06;;;;;;;22.70;14.82;;;2.80;99.90;;;;;;12514734;28;20099;-34
2020/12/06 04:22:07;;;;;;;26.35;16.10;;;3.00;99.90;;;;;;12506697;28;20155;-34
2020/12/06 04:28:10;;;;;;;26.35;16.40;;;2.90;99.90;;;;;;12502552;28;20353;-34
2020/12/06 04:34:11;;;;;;;25.73;15.75;;;2.80;99.90;;;;;;12512190;28;20071;-34
2020/12/06 04:40:13;;;;;;;28.33;16.80;;;2.80;99.90;;;;;;12515716;28;20077;-34
2020/12/06 04:46:15;;;;;;;33.55;18.55;;;2.80;99.90;;;;;;12514243;28;20049;-34
2020/12/06 04:52:24;;;;;;;38.25;19.55;;;2.70;99.90;;;;;;12517428;28;20064;-35
2020/12/06 04:58:27;;;;;;;31.85;18.50;;;2.70;99.90;;;;;;12495762;28;20071;-34
2020/12/06 05:04:32;;;;;;;33.65;19.38;;;2.70;99.90;;;;;;12512970;28;20137;-34
2020/12/06 05:10:41;;;;;;;31.13;18.50;;;2.70;99.90;;;;;;12506833;28;20377;-34
2020/12/06 05:16:44;;;;;;;29.83;18.63;;;2.80;99.90;;;;;;12505936;28;20148;-35
2020/12/06 05:22:45;;;;;;;32.72;19.70;;;2.90;99.90;;;;;;12497208;28;20068;-34
2020/12/06 05:28:46;;;;;;;29.25;18.15;;;3.00;99.90;;;;;;12494954;28;20051;-34
2020/12/06 05:34:48;;;;;;;31.15;18.83;;;2.90;99.90;;;;;;12519805;28;20487;-34
2020/12/06 05:40:49;;;;;;;35.75;20.27;;;2.80;99.90;;;;;;12510778;28;20152;-34
2020/12/06 05:46:50;;;;;;;47.30;22.67;;;2.80;99.90;;;;;;12519037;28;20402;-34
2020/12/06 05:52:56;;;;;;;44.22;24.00;;;2.70;99.90;;;;;;12506349;28;20413;-34
2020/12/06 05:58:58;;;;;;;54.78;26.40;;;2.70;99.90;;;;;;12512868;28;20497;-34
2020/12/06 06:05:03;;;;;;;50.15;26.95;;;2.80;99.90;;;;;;12532576;28;20473;-34
2020/12/06 06:11:16;;;;;;;53.72;27.92;;;2.80;99.90;;;;;;12521909;28;20072;-34
2020/12/06 06:17:18;;;;;;;55.90;28.88;;;2.70;99.90;;;;;;12517149;28;20052;-34
2020/12/06 06:23:21;;;;;;;55.20;28.40;;;2.70;99.90;;;;;;12515244;28;20044;-34
2020/12/06 06:29:22;;;;;;;66.20;30.38;;;2.70;99.90;;;;;;12506924;28;20080;-34
2020/12/06 06:35:24;;;;;;;62.17;30.90;;;2.70;99.90;;;;;;12503498;28;20472;-34
2020/12/06 06:41:27;;;;;;;59.55;28.65;;;2.70;99.90;;;;;;12508717;28;20079;-34
2020/12/06 06:47:29;;;;;;;68.60;30.25;;;2.70;99.90;;;;;;12521485;28;20080;-34
2020/12/06 06:53:31;;;;;;;66.35;29.63;;;2.70;99.90;;;;;;12519652;28;20057;-34
2020/12/06 06:59:45;;;;;;;61.03;29.42;;;2.70;99.90;;;;;;12498948;28;20045;-34
2020/12/06 07:05:47;;;;;;;56.93;29.17;;;2.70;99.90;;;;;;12516656;28;20083;-34
2020/12/06 07:11:50;;;;;;;73.45;31.00;;;2.70;99.90;;;;;;12510829;28;20629;-34
2020/12/06 07:17:53;;;;;;;58.85;28.90;;;2.70;99.90;;;;;;12500440;28;20088;-34
2020/12/06 07:23:56;;;;;;;63.28;28.70;;;2.70;99.90;;;;;;12513333;28;20056;-34
2020/12/06 07:29:57;;;;;;;93.00;31.08;;;2.70;99.90;;;;;;12515406;28;20500;-34
2020/12/06 07:35:59;;;;;;;65.82;28.70;;;2.70;99.90;;;;;;12505155;28;20053;-34
2020/12/06 07:42:00;;;;;;;62.25;27.25;;;2.70;99.90;;;;;;12506317;28;20483;-34
2020/12/06 07:48:01;;;;;;;52.92;27.00;;;2.70;99.90;;;;;;12521128;28;20053;-34
2020/12/06 07:54:03;;;;;;;63.25;27.20;;;2.70;99.90;;;;;;12498527;28;20088;-34
2020/12/06 08:00:10;;;;;;;61.55;26.50;;;2.80;99.90;;;;;;12514142;28;21093;-34
2020/12/06 08:06:14;;;;;;;81.32;29.58;;;2.80;99.90;;;;;;12520907;28;20123;-34
2020/12/06 08:12:18;;;;;;;72.68;28.05;;;2.70;99.90;;;;;;12515061;28;20151;-34
2020/12/06 08:18:20;;;;;;;72.87;27.80;;;2.70;99.90;;;;;;12505839;28;20490;-34
2020/12/06 08:24:23;;;;;;;57.30;25.02;;;2.80;99.90;;;;;;12504181;28;20072;-34
2020/12/06 08:30:27;;;;;;;53.22;25.08;;;2.90;99.90;;;;;;12487322;28;20535;-34
2020/12/06 08:36:29;;;;;;;66.38;24.30;;;3.00;99.90;;;;;;12507128;28;20072;-34
2020/12/06 08:42:30;;;;;;;48.20;23.60;;;3.00;99.90;;;;;;12513648;28;20076;-34
2020/12/06 08:48:31;;;;;;;52.83;24.33;;;3.00;99.90;;;;;;12521423;28;20099;-35
2020/12/06 08:54:34;;;;;;;62.28;26.15;;;3.00;99.90;;;;;;12517573;28;20452;-34
2020/12/06 09:00:36;;;;;;;63.35;24.95;;;2.90;99.90;;;;;;12499157;28;20048;-34
2020/12/06 09:06:38;;;;;;;53.42;24.42;;;3.00;99.90;;;;;;12517496;28;20562;-34
2020/12/06 09:12:39;;;;;;;51.17;23.83;;;3.00;99.90;;;;;;12514668;28;20143;-34
2020/12/06 09:18:41;;;;;;;62.53;24.25;;;3.10;99.90;;;;;;12498916;28;20148;-34
2020/12/06 09:24:45;;;;;;;54.87;24.97;;;3.00;99.90;;;;;;12507512;28;20036;-34
2020/12/06 09:30:46;;;;;;;48.33;24.50;;;3.10;99.90;;;;;;12495340;28;20060;-34
2020/12/06 09:36:48;;;;;;;50.42;23.70;;;3.10;99.90;;;;;;12504870;28;20055;-34
2020/12/06 09:42:49;;;;;;;60.75;25.95;;;3.20;99.90;;;;;;12518425;28;20084;-34
2020/12/06 09:48:51;;;;;;;50.35;25.20;;;3.30;99.90;;;;;;12507837;28;20144;-34
2020/12/06 09:54:52;;;;;;;54.92;25.13;;;3.40;99.90;;;;;;12487364;28;20075;-34
2020/12/06 10:00:53;;;;;;;48.15;26.15;;;3.30;99.90;;;;;;12507290;28;20057;-34
2020/12/06 10:06:55;;;;;;;52.80;26.48;;;3.30;99.90;;;;;;12520904;28;20435;-34
2020/12/06 10:12:56;;;;;;;55.42;26.48;;;3.30;99.90;;;;;;12522112;28;20064;-34
2020/12/06 10:18:58;;;;;;;42.75;24.33;;;3.40;99.90;;;;;;12521058;28;20183;-34
2020/12/06 10:25:00;;;;;;;47.42;26.42;;;3.60;99.90;;;;;;12509930;28;20049;-34
2020/12/06 10:31:01;;;;;;;55.83;26.77;;;3.40;99.90;;;;;;12509511;28;20053;-34
2020/12/06 10:37:03;;;;;;;57.42;27.73;;;3.30;99.90;;;;;;12513764;28;20068;-34
2020/12/06 10:43:04;;;;;;;55.83;28.15;;;3.30;99.90;;;;;;12526007;28;20060;-34
2020/12/06 10:49:06;;;;;;;59.67;29.00;;;3.30;99.90;;;;;;12519904;28;20056;-34
2020/12/06 10:55:07;;;;;;;54.63;27.05;;;3.30;99.90;;;;;;12501434;28;20077;-34
2020/12/06 11:01:08;;;;;;;55.92;28.35;;;3.30;99.90;;;;;;12508434;28;20094;-34
2020/12/06 11:07:10;;;;;;;54.67;28.75;;;3.30;99.90;;;;;;12520613;28;20076;-34
2020/12/06 11:13:11;;;;;;;65.38;31.15;;;3.30;99.90;;;;;;12527261;28;20072;-34
2020/12/06 11:19:12;;;;;;;59.08;30.55;;;3.30;99.90;;;;;;12514843;28;20064;-34
2020/12/06 11:25:14;;;;;;;63.05;30.02;;;3.30;99.90;;;;;;12509660;28;20073;-34
2020/12/06 11:31:15;;;;;;;63.53;30.13;;;3.30;99.90;;;;;;12506480;28;20076;-34
2020/12/06 11:37:16;;;;;;;55.38;28.00;;;3.40;99.90;;;;;;12506883;28;20060;-34
2020/12/06 11:43:18;;;;;;;63.70;29.50;;;3.50;99.90;;;;;;12520746;28;20127;-34
2020/12/06 11:49:19;;;;;;;59.53;29.15;;;3.60;99.90;;;;;;12500039;28;20159;-34
2020/12/06 11:55:20;;;;;;;56.25;28.67;;;3.60;99.90;;;;;;12516996;28;20091;-34
2020/12/06 12:01:22;;;;;;;56.33;28.98;;;3.60;99.90;;;;;;12507136;28;20076;-34
2020/12/06 12:07:24;;;;;;;55.42;29.65;;;3.70;99.90;;;;;;12518859;28;20140;-34
2020/12/06 12:13:27;;;;;;;49.53;27.45;;;3.60;99.90;;;;;;12510389;28;20566;-34
2020/12/06 12:19:28;;;;;;;58.08;29.20;;;3.70;99.90;;;;;;12502451;28;20808;-34
2020/12/06 12:25:30;;;;;;;52.65;28.77;;;3.70;99.90;;;;;;12500063;28;20532;-34
2020/12/06 12:31:32;;;;;;;53.67;28.30;;;3.70;99.90;;;;;;12495291;28;20326;-34
2020/12/06 12:37:33;;;;;;;54.33;28.70;;;3.60;99.90;;;;;;12502517;28;20142;-34
2020/12/06 12:43:35;;;;;;;57.70;29.55;;;3.60;99.90;;;;;;12513113;28;22151;-34
2020/12/06 12:49:36;;;;;;;60.47;30.63;;;3.60;99.90;;;;;;12519532;28;20465;-34
2020/12/06 12:55:38;;;;;;;59.08;29.95;;;3.60;99.90;;;;;;12510372;28;20083;-34
2020/12/06 13:01:40;;;;;;;61.08;30.88;;;3.70;99.90;;;;;;12511707;28;20080;-34
2020/12/06 13:07:41;;;;;;;69.40;32.83;;;3.70;99.90;;;;;;12524227;28;20135;-34
2020/12/06 13:13:42;;;;;;;61.55;32.45;;;3.70;99.90;;;;;;12514810;28;20084;-34
2020/12/06 13:19:44;;;;;;;57.47;30.73;;;3.80;99.90;;;;;;12507246;28;20420;-34
2020/12/06 13:25:46;;;;;;;57.70;30.17;;;3.80;99.90;;;;;;12511237;28;20080;-34
2020/12/06 13:31:53;;;;;;;65.90;31.83;;;3.80;99.90;;;;;;12486416;28;20113;-34
2020/12/06 13:37:55;;;;;;;67.50;32.63;;;3.80;99.90;;;;;;12489672;28;20354;-34
2020/12/06 13:43:56;;;;;;;62.60;31.38;;;3.90;99.90;;;;;;12515379;28;20063;-34
2020/12/06 13:49:58;;;;;;;64.68;31.83;;;3.90;99.90;;;;;;12518812;28;20053;-34
2020/12/06 13:55:59;;;;;;;63.03;32.63;;;3.90;99.90;;;;;;12514463;28;20048;-34
2020/12/06 14:02:00;;;;;;;65.32;31.80;;;3.90;99.90;;;;;;12520748;28;20461;-34
2020/12/06 14:08:02;;;;;;;78.88;33.42;;;3.80;99.90;;;;;;12525148;28;20045;-34
2020/12/06 14:14:03;;;;;;;71.15;33.58;;;3.80;99.90;;;;;;12519622;28;20072;-34
2020/12/06 14:20:04;;;;;;;67.75;34.47;;;3.70;99.90;;;;;;12513460;28;20846;-34
2020/12/06 14:26:06;;;;;;;77.68;33.80;;;3.70;99.90;;;;;;12505637;28;20044;-34
2020/12/06 14:32:07;;;;;;;77.50;34.38;;;3.70;99.90;;;;;;12509680;28;20136;-34
2020/12/06 14:38:09;;;;;;;95.40;36.75;;;3.70;99.90;;;;;;12522323;28;20099;-34
2020/12/06 14:44:11;;;;;;;79.30;33.67;;;3.60;99.90;;;;;;12517319;28;20072;-34
2020/12/06 14:50:12;;;;;;;79.78;34.75;;;3.60;99.90;;;;;;12509284;28;20492;-34
2020/12/06 14:56:13;;;;;;;77.05;35.42;;;3.50;99.90;;;;;;12515521;28;20083;-34
2020/12/06 15:02:15;;;;;;;70.28;34.20;;;3.50;99.90;;;;;;12519023;28;20056;-34
2020/12/06 15:08:16;;;;;;;85.55;36.65;;;3.40;99.90;;;;;;12521847;28;20080;-34
2020/12/06 15:14:18;;;;;;;77.85;35.35;;;3.40;99.90;;;;;;12522118;28;20076;-34
2020/12/06 15:20:19;;;;;;;78.80;35.20;;;3.40;99.90;;;;;;12506386;28;20048;-35
2020/12/06 15:26:21;;;;;;;88.03;38.30;;;3.40;99.90;;;;;;12488981;28;20079;-34
2020/12/06 15:32:22;;;;;;;95.82;38.38;;;3.40;99.90;;;;;;12508253;28;20102;-34
2020/12/06 15:38:23;;;;;;;104.88;39.95;;;3.40;99.90;;;;;;12514803;28;20162;-34
2020/12/06 15:44:25;;;;;;;93.80;40.55;;;3.40;99.90;;;;;;12504625;28;20056;-35
2020/12/06 15:50:26;;;;;;;77.60;34.72;;;3.40;99.90;;;;;;12499937;28;20052;-34
2020/12/06 15:56:28;;;;;;;83.35;36.58;;;3.40;99.90;;;;;;12501355;28;20413;-34
2020/12/06 16:02:29;;;;;;;90.82;37.25;;;3.50;99.90;;;;;;12515831;28;20048;-34
2020/12/06 16:08:31;;;;;;;89.95;38.88;;;3.50;99.90;;;;;;12506476;28;20083;-34
2020/12/06 16:14:34;;;;;;;98.60;37.90;;;3.40;99.90;;;;;;12514602;28;20064;-34
2020/12/06 16:20:37;;;;;;;90.70;37.58;;;3.40;99.90;;;;;;12497428;28;20815;-34
2020/12/06 16:26:39;;;;;;;110.47;41.08;;;3.30;99.90;;;;;;12502686;28;20536;-34
2020/12/06 16:32:44;;;;;;;96.70;39.35;;;3.40;99.90;;;;;;12484442;28;20076;-34
2020/12/06 16:38:46;;;;;;;98.00;40.10;;;3.40;99.90;;;;;;12509834;28;20075;-34
2020/12/06 16:44:47;;;;;;;100.07;40.15;;;3.40;99.90;;;;;;12506320;28;20072;-34
2020/12/06 16:50:48;;;;;;;123.50;44.13;;;3.40;99.90;;;;;;12512072;28;20091;-34
2020/12/06 16:56:50;;;;;;;112.90;42.53;;;3.40;99.90;;;;;;12497304;28;20053;-34
2020/12/06 17:02:52;;;;;;;125.72;42.33;;;3.40;99.90;;;;;;12518386;28;20135;-34
2020/12/06 17:08:53;;;;;;;116.53;42.60;;;3.30;99.90;;;;;;12505967;28;20144;-34
2020/12/06 17:14:54;;;;;;;119.88;42.58;;;3.30;99.90;;;;;;12509521;28;20496;-34
2020/12/06 17:20:56;;;;;;;115.28;44.15;;;3.30;99.90;;;;;;12506355;28;20139;-34
2020/12/06 17:26:57;;;;;;;138.88;42.95;;;3.30;99.90;;;;;;12513773;28;20642;-34
2020/12/06 17:32:58;;;;;;;124.47;43.47;;;3.30;99.90;;;;;;12514218;28;20481;-34
2020/12/06 17:38:59;;;;;;;137.60;50.53;;;3.30;99.90;;;;;;12537758;28;20134;-34
2020/12/06 17:45:01;;;;;;;124.38;45.85;;;3.30;99.90;;;;;;12526071;28;20052;-34
2020/12/06 17:51:02;;;;;;;144.60;45.72;;;3.30;99.90;;;;;;12518635;28;20076;-34
2020/12/06 17:57:05;;;;;;;157.52;45.33;;;3.30;99.90;;;;;;12513797;28;20072;-34
2020/12/06 18:03:06;;;;;;;117.93;42.55;;;3.30;99.90;;;;;;12534579;28;20052;-34
2020/12/06 18:09:08;;;;;;;125.00;42.83;;;3.40;99.90;;;;;;12523472;28;20496;-34
2020/12/06 18:15:10;;;;;;;131.80;43.00;;;3.40;99.90;;;;;;12519408;28;20087;-34
2020/12/06 18:21:11;;;;;;;108.22;40.13;;;3.40;99.90;;;;;;12520078;28;20048;-34
2020/12/06 18:27:12;;;;;;;136.07;46.10;;;3.40;99.90;;;;;;12524756;28;20769;-34
2020/12/06 18:33:13;;;;;;;153.00;44.40;;;3.40;99.90;;;;;;12486742;28;20149;-34
2020/12/06 18:39:15;;;;;;;145.68;44.60;;;3.30;99.90;;;;;;12502540;28;20088;-34
2020/12/06 18:45:16;;;;;;;108.05;38.25;;;3.40;99.90;;;;;;12513015;28;20135;-34
2020/12/06 18:51:21;;;;;;;113.93;40.13;;;3.40;99.90;;;;;;12512750;28;20382;-34
2020/12/06 18:57:22;;;;;;;139.73;45.10;;;3.50;99.90;;;;;;12502707;28;20068;-34
2020/12/06 19:03:23;;;;;;;114.32;41.22;;;3.50;99.90;;;;;;12518995;28;20152;-34
2020/12/06 19:09:25;;;;;;;114.05;40.00;;;3.50;99.90;;;;;;12518365;28;20757;-34
2020/12/06 19:15:27;;;;;;;143.35;43.08;;;3.50;99.90;;;;;;12507647;28;20404;-34
2020/12/06 19:21:29;;;;;;;117.03;41.13;;;3.60;99.90;;;;;;12517160;28;20045;-34
2020/12/06 19:27:31;;;;;;;124.40;42.53;;;3.50;99.90;;;;;;12524344;28;20041;-34
2020/12/06 19:33:32;;;;;;;161.38;44.95;;;3.60;99.90;;;;;;12523829;28;20221;-34
2020/12/06 19:39:38;;;;;;;120.05;40.90;;;3.50;99.90;;;;;;12519482;28;20504;-34
2020/12/06 19:45:40;;;;;;;156.77;43.08;;;3.50;99.90;;;;;;12526302;28;20081;-34
2020/12/06 19:51:42;;;;;;;142.20;41.88;;;3.50;99.90;;;;;;12522576;28;20040;-34
2020/12/06 19:57:43;;;;;;;163.77;45.85;;;3.50;99.90;;;;;;12501844;28;20052;-34
2020/12/06 20:03:45;;;;;;;124.43;43.00;;;3.50;99.90;;;;;;12530439;28;20131;-34
2020/12/06 20:09:47;;;;;;;161.50;46.40;;;3.50;99.90;;;;;;12528725;28;20052;-34
2020/12/06 20:15:49;;;;;;;160.95;47.38;;;3.50;99.90;;;;;;12519982;28;20089;-34
2020/12/06 20:21:57;;;;;;;162.48;46.28;;;3.50;99.90;;;;;;12514211;28;20080;-34
2020/12/06 20:27:59;;;;;;;153.60;48.10;;;3.60;99.90;;;;;;12519837;28;20101;-34
2020/12/06 20:34:01;;;;;;;128.00;45.40;;;3.50;99.90;;;;;;12522071;28;20179;-34
2020/12/06 20:40:03;;;;;;;118.88;43.35;;;3.70;99.90;;;;;;12519661;28;20053;-34
2020/12/06 20:46:05;;;;;;;131.13;44.60;;;3.60;99.90;;;;;;12496583;28;20140;-34
2020/12/06 20:52:10;;;;;;;113.15;42.13;;;3.60;99.90;;;;;;12516486;28;20401;-34
2020/12/06 20:58:12;;;;;;;114.50;41.10;;;3.60;99.90;;;;;;12522688;28;20052;-34
2020/12/06 21:04:13;;;;;;;153.52;45.90;;;3.50;99.90;;;;;;12520944;28;20087;-34
2020/12/06 21:10:17;;;;;;;139.77;45.83;;;3.50;99.90;;;;;;12522395;28;20072;-34
2020/12/06 21:16:20;;;;;;;154.73;48.50;;;3.50;99.90;;;;;;12521957;28;20048;-34
2020/12/06 21:22:21;;;;;;;146.70;47.03;;;3.50;99.90;;;;;;12515774;28;20493;-34
2020/12/06 21:28:23;;;;;;;153.43;48.92;;;3.50;99.90;;;;;;12522088;28;20055;-34
2020/12/06 21:34:25;;;;;;;152.88;46.33;;;3.50;99.90;;;;;;12518327;28;20469;-34
2020/12/06 21:40:27;;;;;;;110.88;40.47;;;3.50;99.90;;;;;;12500076;28;20424;-34
2020/12/06 21:46:28;;;;;;;107.57;39.45;;;3.60;99.90;;;;;;12506818;28;20048;-34
2020/12/06 21:52:30;;;;;;;140.18;40.25;;;3.50;99.90;;;;;;12515508;28;20586;-34
2020/12/06 21:58:32;;;;;;;119.72;40.83;;;3.60;99.90;;;;;;12523909;28;20059;-34
2020/12/06 22:04:35;;;;;;;116.95;40.13;;;3.70;99.90;;;;;;12526960;28;20044;-34
2020/12/06 22:10:38;;;;;;;120.95;42.08;;;3.60;99.90;;;;;;12518119;28;20053;-34
2020/12/06 22:16:40;;;;;;;138.40;43.03;;;3.60;99.90;;;;;;12532891;28;20057;-34
2020/12/06 22:22:41;;;;;;;147.77;42.20;;;3.70;99.90;;;;;;12511272;28;20048;-34
2020/12/06 22:28:44;;;;;;;102.28;39.30;;;3.60;99.90;;;;;;12523821;28;20131;-34
2020/12/06 22:34:46;;;;;;;231.73;47.65;;;3.60;99.90;;;;;;12521286;28;20059;-34
2020/12/06 22:40:48;;;;;;;183.05;45.45;;;3.60;99.90;;;;;;12526644;28;20092;-34
2020/12/06 22:46:50;;;;;;;130.68;40.42;;;3.60;99.90;;;;;;12529672;28;20114;-34
2020/12/06 22:52:51;;;;;;;205.10;47.53;;;3.60;99.90;;;;;;12528207;28;20132;-34
2020/12/06 22:58:53;;;;;;;144.10;44.83;;;3.50;99.90;;;;;;12528554;28;20428;-34
2020/12/06 23:04:54;;;;;;;140.20;42.75;;;3.60;99.90;;;;;;12539108;28;20141;-34
2020/12/06 23:10:56;;;;;;;184.27;45.97;;;3.50;99.90;;;;;;12530492;28;20056;-34
2020/12/06 23:16:59;;;;;;;121.85;41.53;;;3.50;99.90;;;;;;12531609;28;20061;-34
2020/12/06 23:23:00;;;;;;;162.23;43.53;;;3.50;99.90;;;;;;12511227;28;20487;-35
2020/12/06 23:29:03;;;;;;;154.95;44.30;;;3.50;99.90;;;;;;12516819;28;20571;-34
2020/12/06 23:35:06;;;;;;;107.03;38.78;;;3.60;99.90;;;;;;12513650;28;20091;-34
2020/12/06 23:41:09;;;;;;;114.68;39.58;;;3.60;99.90;;;;;;12528892;28;20049;-34
2020/12/06 23:47:11;;;;;;;116.05;39.00;;;3.60;99.90;;;;;;12525440;28;20048;-34
2020/12/06 23:53:13;;;;;;;148.15;42.72;;;3.60;99.90;;;;;;12524094;28;20093;-34
2020/12/06 23:59:14;;;;;;;218.77;43.55;;;3.60;99.90;;;;;;12511012;28;20056;-34
